St Petersburg Clearwater International Airport
KPIE : now visible

Airfield :











YOU CAN JOIN US ON...

 
LOGIN :

Register | Disclaimer

   EN    FR    IT 

 









Legend :    VFR   Marginal VFR   IFR   Intensive IFR   Very Intensive IFR
Visi :
Ceiling :
>= 8 km
>= 3000ft
5 to 8 km
1000 to 3000 ft
1500m to 5 km
500 to 1000 ft
800 to 1500m
200 to 500 ft
< 800m
< 200 ft
Symbols :   Thunderstorms  Fog  Heavy snow  Heavy precipitations  Wind > 20 kt






- Airport Elevation : 11 ft
- IATA code : PIE


KPIE - St Petersburg Clearwater International

CURRENT METAR :
  • 250453Z AUTO 03004KT 10SM BKN065 OVC085 27/25 A2994 RMK AO2 SLP139 T02670250 403330228

EXPIRED METARs :
  • 250353Z AUTO 35003KT 10SM CLR 26/24 A2993 RMK AO2 SLP136 T02610244
  • 250253Z AUTO 36005KT 10SM FEW090 27/24 A2994 RMK AO2 SLP139 T02670244 51013
  • 250153Z 33008KT 10SM BKN090 27/24 A2993 RMK AO2 SLP136 T02720239
  • 250053Z 30008KT 10SM FEW090 28/24 A2993 RMK AO2 SLP134 T02780239

TAF KPIE
Valid from the 25 at 06:00 until the 26 at 06:00 UTC


250536Z 2506/2606 01003KT P6SM BKN080
FM251500 29011KT P6SM FEW050 SCT250
FM260200 28004KT P6SM SCT100
KZMA FIR / North America



MET'MAP, your aeronautical weather chart ! - Copyright ORBIFLY December 2007 - Disclaimer

ORBIFLY MET'MAP TEAM :

Programming & Development : Alexandra Zaïnal
Original concept : Baudouin d'Aumeries
Technical & hardware support : Manuel Goepfert
Assistance : Marc-Olivier Méhu




SOURCES & CREDITS :

   NOAA       Earth
Advisory